createdAt,value
2023-04-05T00:01:26.784Z,0.08
2023-04-05T00:03:58.503Z,-1.13
2023-04-05T00:06:28.894Z,-0.23
2023-04-05T00:08:57.464Z,-0.05
2023-04-05T00:11:26.169Z,-0.63
2023-04-05T00:13:55.847Z,-0.28
2023-04-05T00:16:24.469Z,-0.31
2023-04-05T00:18:52.857Z,-1.39
2023-04-05T00:21:22.552Z,-0.44
2023-04-05T00:23:51.585Z,-0.38
2023-04-05T00:26:20.727Z,-0.76
2023-04-05T00:28:55.849Z,-0.33
2023-04-05T00:31:24.752Z,-0.56
2023-04-05T00:33:53.569Z,-0.51
2023-04-05T00:36:22.390Z,-0.28
2023-04-05T00:38:50.879Z,-1.03
2023-04-05T00:41:19.470Z,-0.71
2023-04-05T00:43:48.696Z,-0.81
2023-04-05T00:46:18.594Z,-0.37
2023-04-05T00:48:47.468Z,-0.51
2023-04-05T00:51:17.309Z,-0.53
2023-04-05T00:53:46.249Z,-1.19
2023-04-05T00:56:16.888Z,-0.48
2023-04-05T00:58:45.294Z,-0.54
2023-04-05T01:01:22.435Z,-0.53
2023-04-05T01:03:54.960Z,-1.33
2023-04-05T01:06:38.709Z,-0.88
2023-04-05T01:09:18.924Z,-0.95
2023-04-05T01:11:49.883Z,-1.27
2023-04-05T01:14:18.302Z,-0.75
2023-04-05T01:16:49.894Z,-0.83
2023-04-05T01:19:19.196Z,-0.94
2023-04-05T01:22:38.194Z,-0.92
2023-04-05T01:25:38.866Z,-1.20
2023-04-05T01:28:33.346Z,-0.97
2023-04-05T01:31:10.029Z,-1.42
2023-04-05T01:33:49.381Z,-1.27
2023-04-05T01:36:32.943Z,-1.44
2023-04-05T01:39:03.835Z,-1.08
2023-04-05T01:41:32.921Z,-1.53
2023-04-05T01:44:01.463Z,-0.99
2023-04-05T01:46:31.291Z,-1.01
2023-04-05T01:48:59.896Z,-1.43
2023-04-05T01:51:28.945Z,-1.12
2023-04-05T01:53:57.380Z,-1.15
2023-04-05T01:56:25.985Z,-1.24
2023-04-05T01:58:54.509Z,-1.29
2023-04-05T02:01:23.050Z,-1.45
2023-04-05T02:03:53.412Z,-1.39
2023-04-05T02:06:21.958Z,-2.39
2023-04-05T02:08:50.403Z,-1.32
2023-04-05T02:11:18.800Z,-1.48
2023-04-05T02:13:47.518Z,-1.60
2023-04-05T02:16:17.311Z,-1.80
2023-04-05T02:18:50.965Z,-1.66
2023-04-05T02:21:21.859Z,-1.62
2023-04-05T02:23:50.269Z,-1.63
2023-04-05T02:26:19.630Z,-1.85
2023-04-05T02:28:48.093Z,-1.72
2023-04-05T02:31:16.619Z,-2.40
2023-04-05T02:33:46.610Z,-1.66
2023-04-05T02:36:14.917Z,-2.51
2023-04-05T02:38:44.924Z,-1.63
2023-04-05T02:41:13.472Z,-2.29
2023-04-05T02:43:41.879Z,-1.66
2023-04-05T02:46:10.357Z,-2.16
2023-04-05T02:48:43.411Z,-2.00
2023-04-05T02:51:13.991Z,-2.16
2023-04-05T02:53:45.069Z,-1.72
2023-04-05T02:56:16.253Z,-2.01
2023-04-05T02:58:49.338Z,-1.82
2023-04-05T03:01:23.952Z,-1.87
2023-04-05T03:03:52.505Z,-2.10
2023-04-05T03:06:20.979Z,-1.94
2023-04-05T03:08:52.456Z,-2.25
2023-04-05T03:11:26.156Z,-1.96
2023-04-05T03:13:59.035Z,-2.38
2023-04-05T03:16:36.599Z,-2.13
2023-04-05T03:19:12.380Z,-2.06
2023-04-05T03:21:46.769Z,-1.99
2023-04-05T03:24:27.259Z,-2.16
2023-04-05T03:27:02.434Z,-2.18
2023-04-05T03:29:35.694Z,-1.98
2023-04-05T03:32:13.929Z,-2.19
2023-04-05T03:34:48.777Z,-1.99
2023-04-05T03:37:18.910Z,-1.96
2023-04-05T03:39:55.269Z,-1.96
2023-04-05T03:42:23.784Z,-2.05
2023-04-05T03:44:54.853Z,-2.04
2023-04-05T03:47:23.827Z,-2.02
2023-04-05T03:49:54.249Z,-2.10
2023-04-05T03:52:22.650Z,-2.51
2023-04-05T03:54:54.427Z,-2.10
2023-04-05T03:57:29.066Z,-2.04
2023-04-05T04:00:00.034Z,-1.95
2023-04-05T04:02:32.020Z,-2.09
2023-04-05T04:05:00.621Z,-2.22
2023-04-05T04:07:31.607Z,-2.12
2023-04-05T04:10:02.230Z,-2.45
2023-04-05T04:12:33.724Z,-2.76
2023-04-05T04:15:03.895Z,-2.24
2023-04-05T04:17:51.141Z,-2.19
2023-04-05T04:20:40.591Z,-2.26
2023-04-05T04:23:28.865Z,-2.61
2023-04-05T04:26:06.170Z,-2.62
2023-04-05T04:29:03.404Z,-2.57
2023-04-05T04:32:06.995Z,-2.34
2023-04-05T04:35:05.467Z,-2.25
2023-04-05T04:37:59.087Z,-2.56
2023-04-05T04:41:08.412Z,-2.40
2023-04-05T04:44:03.299Z,-2.33
2023-04-05T04:46:43.000Z,-2.39
2023-04-05T04:49:37.382Z,-2.43
2023-04-05T04:52:06.007Z,-2.89
2023-04-05T04:54:36.760Z,-2.35
2023-04-05T04:57:05.371Z,-2.38
2023-04-05T04:59:35.172Z,-2.34
2023-04-05T05:02:06.090Z,-2.30
2023-04-05T05:04:36.002Z,-2.30
2023-04-05T05:07:04.552Z,-2.39
2023-04-05T05:09:34.898Z,-2.40
2023-04-05T05:12:03.442Z,-2.33
2023-04-05T05:14:31.890Z,-2.30
2023-04-05T05:17:01.737Z,-2.35
2023-04-05T05:19:31.734Z,-2.45
2023-04-05T05:22:00.738Z,-2.39
2023-04-05T05:24:29.272Z,-2.64
2023-04-05T05:26:57.773Z,-2.27
2023-04-05T05:29:26.338Z,-2.23
2023-04-05T05:31:56.057Z,-2.16
2023-04-05T05:34:25.924Z,-2.22
2023-04-05T05:36:58.487Z,-2.10
2023-04-05T05:39:27.108Z,-2.30
2023-04-05T05:41:55.694Z,-2.07
2023-04-05T05:44:24.175Z,-1.95
2023-04-05T05:46:52.939Z,-1.86
2023-04-05T05:49:21.949Z,-1.48
2023-04-05T05:51:53.118Z,-1.82
2023-04-05T05:54:21.799Z,-1.61
2023-04-05T05:56:50.336Z,-1.51
2023-04-05T05:59:18.892Z,-1.24
2023-04-05T06:01:47.601Z,-1.41
2023-04-05T06:04:16.544Z,-1.41
2023-04-05T06:06:46.780Z,-1.22
2023-04-05T06:09:17.059Z,-1.38
2023-04-05T06:11:55.643Z,-1.12
2023-04-05T06:14:25.982Z,-0.94
2023-04-05T06:16:54.511Z,-0.58
2023-04-05T06:19:23.337Z,-0.12
2023-04-05T06:21:52.334Z,0.16
2023-04-05T06:24:22.245Z,0.36
2023-04-05T06:26:52.679Z,0.23
2023-04-05T06:29:21.111Z,0.70
2023-04-05T06:31:49.618Z,0.51
2023-04-05T06:34:18.482Z,0.37
2023-04-05T06:36:48.158Z,0.65
2023-04-05T06:39:16.608Z,0.60
2023-04-05T06:41:46.609Z,0.66
2023-04-05T06:44:15.103Z,0.75
2023-04-05T06:46:43.551Z,0.67
2023-04-05T06:49:12.152Z,1.21
2023-04-05T06:51:40.823Z,1.39
2023-04-05T06:54:09.505Z,1.71
2023-04-05T06:56:39.220Z,1.66
2023-04-05T06:59:09.453Z,1.93
2023-04-05T07:01:38.143Z,2.05
2023-04-05T07:04:06.880Z,2.10
2023-04-05T07:06:39.264Z,2.14
2023-04-05T07:09:08.000Z,2.15
2023-04-05T07:11:36.863Z,2.13
2023-04-05T07:14:05.619Z,2.10
2023-04-05T07:16:35.625Z,1.66
2023-04-05T07:19:06.110Z,1.96
2023-04-05T07:21:34.986Z,1.72
2023-04-05T07:24:03.414Z,1.82
2023-04-05T07:26:34.997Z,1.99
2023-04-05T07:29:03.359Z,2.13
2023-04-05T07:31:32.330Z,2.15
2023-04-05T07:34:03.164Z,2.10
2023-04-05T07:36:31.877Z,2.02
2023-04-05T07:39:00.878Z,2.22
2023-04-05T07:41:32.953Z,2.07
2023-04-05T07:44:01.524Z,1.96
2023-04-05T07:46:30.248Z,2.21
2023-04-05T07:49:01.505Z,2.40
2023-04-05T07:51:29.852Z,2.50
2023-04-05T07:53:59.411Z,2.51
2023-04-05T07:56:30.428Z,2.08
2023-04-05T07:58:59.540Z,2.55
2023-04-05T08:01:28.923Z,2.59
2023-04-05T08:03:58.424Z,2.91
2023-04-05T08:06:28.525Z,3.10
2023-04-05T08:08:57.258Z,3.45
2023-04-05T08:11:26.554Z,3.41
2023-04-05T08:13:55.336Z,3.97
2023-04-05T08:16:23.993Z,4.64
2023-04-05T08:18:52.528Z,5.52
2023-04-05T08:21:23.485Z,6.14
2023-04-05T08:23:53.677Z,6.25
2023-04-05T08:26:22.151Z,6.69
2023-04-05T08:28:50.645Z,6.35
2023-04-05T08:31:19.235Z,7.45
2023-04-05T08:33:47.805Z,7.70
2023-04-05T08:36:16.496Z,7.92
2023-04-05T08:38:44.883Z,8.05
2023-04-05T08:41:22.594Z,7.91
2023-04-05T08:43:59.077Z,8.19
2023-04-05T08:46:28.853Z,8.22
2023-04-05T08:48:59.400Z,8.36
2023-04-05T08:51:28.527Z,8.33
2023-04-05T08:53:57.673Z,8.40
2023-04-05T08:56:33.880Z,8.49
2023-04-05T08:59:05.726Z,8.46
2023-04-05T09:01:39.026Z,8.57
2023-04-05T09:04:10.440Z,8.88
2023-04-05T09:06:39.464Z,8.94
2023-04-05T09:09:09.700Z,9.08
2023-04-05T09:11:41.732Z,8.88
2023-04-05T09:14:11.996Z,9.17
2023-04-05T09:16:42.470Z,8.95
2023-04-05T09:19:12.152Z,9.14
2023-04-05T09:22:01.948Z,9.19
2023-04-05T09:24:41.138Z,8.28
2023-04-05T09:27:13.252Z,9.19
2023-04-05T09:29:43.937Z,9.19
2023-04-05T09:32:14.304Z,9.59
2023-04-05T09:34:44.494Z,9.56
2023-04-05T09:37:22.491Z,9.49
2023-04-05T09:40:02.887Z,9.64
2023-04-05T09:42:45.586Z,9.72
2023-04-05T09:45:14.368Z,9.57
2023-04-05T09:47:58.223Z,9.72
2023-04-05T09:50:27.219Z,9.97
2023-04-05T09:53:09.918Z,10.16
2023-04-05T09:55:41.710Z,10.23
2023-04-05T09:58:19.996Z,10.02
2023-04-05T10:00:59.940Z,9.83
2023-04-05T10:03:31.986Z,10.13
2023-04-05T10:06:01.122Z,10.07
2023-04-05T10:08:29.768Z,10.44
2023-04-05T10:10:58.968Z,10.01
2023-04-05T10:13:29.357Z,10.20
2023-04-05T10:16:01.876Z,10.22
2023-04-05T10:18:39.795Z,10.26
2023-04-05T10:21:12.580Z,10.61
2023-04-05T10:23:48.038Z,10.69
2023-04-05T10:26:25.762Z,10.85
2023-04-05T10:29:07.495Z,10.47
2023-04-05T10:31:52.072Z,10.70
2023-04-05T10:34:41.451Z,10.95
2023-04-05T10:37:22.186Z,11.02
2023-04-05T10:39:50.872Z,11.17
2023-04-05T10:42:22.971Z,10.72
2023-04-05T10:45:00.331Z,11.11
2023-04-05T10:47:32.781Z,10.80
2023-04-05T10:50:04.866Z,11.15
2023-04-05T10:52:35.416Z,11.11
2023-04-05T10:55:05.702Z,10.94
2023-04-05T10:57:36.343Z,10.91
2023-04-05T11:00:08.984Z,10.96
2023-04-05T11:02:38.031Z,11.28
2023-04-05T11:05:07.747Z,11.13
2023-04-05T11:07:45.452Z,11.09
2023-04-05T11:10:19.038Z,11.51
2023-04-05T11:13:12.000Z,11.90
2023-04-05T11:15:42.142Z,12.14
2023-04-05T11:18:13.003Z,12.15
2023-04-05T11:20:51.541Z,12.28
2023-04-05T11:23:22.496Z,12.59
2023-04-05T11:25:57.616Z,12.66
2023-04-05T11:28:34.166Z,12.89
2023-04-05T11:31:16.739Z,12.72
2023-04-05T11:34:10.491Z,12.71
2023-04-05T11:36:42.136Z,12.30
2023-04-05T11:39:27.346Z,12.44
2023-04-05T11:42:02.120Z,12.60
2023-04-05T11:44:40.335Z,12.80
2023-04-05T11:47:11.473Z,12.98
2023-04-05T11:49:40.580Z,12.98
2023-04-05T11:52:15.107Z,13.06
2023-04-05T11:54:47.232Z,13.03
2023-04-05T11:57:19.694Z,13.24
2023-04-05T11:59:51.552Z,13.32
2023-04-05T12:02:22.618Z,13.43
2023-04-05T12:04:57.653Z,13.44
2023-04-05T12:07:29.546Z,13.53
2023-04-05T12:10:09.995Z,13.30
2023-04-05T12:12:41.083Z,13.19
2023-04-05T12:15:13.397Z,13.21
2023-04-05T12:17:51.306Z,13.25
2023-04-05T12:20:23.916Z,13.21
2023-04-05T12:22:57.746Z,13.02
2023-04-05T12:25:27.401Z,12.97
2023-04-05T12:27:55.867Z,13.10
2023-04-05T12:30:25.425Z,13.07
2023-04-05T12:32:57.724Z,13.06
2023-04-05T12:35:34.898Z,13.02
2023-04-05T12:38:05.673Z,13.23
2023-04-05T12:40:36.128Z,13.47
2023-04-05T12:43:07.176Z,13.47
2023-04-05T12:45:41.756Z,13.45
2023-04-05T12:48:14.151Z,13.08
2023-04-05T12:50:46.821Z,12.38
2023-04-05T12:53:20.670Z,12.14
2023-04-05T12:55:54.588Z,11.57
2023-04-05T12:58:28.771Z,11.77
2023-04-05T13:00:57.468Z,12.09
2023-04-05T13:03:28.531Z,12.33
2023-04-05T13:05:57.165Z,12.57
2023-04-05T13:08:27.071Z,12.52
2023-04-05T13:10:57.904Z,13.01
2023-04-05T13:13:26.830Z,12.96
2023-04-05T13:15:55.487Z,12.80
2023-04-05T13:18:23.848Z,12.93
2023-04-05T13:20:53.752Z,12.92
2023-04-05T13:23:22.095Z,12.94
2023-04-05T13:25:50.468Z,13.00
2023-04-05T13:28:18.885Z,13.02
2023-04-05T13:30:49.132Z,13.06
2023-04-05T13:33:19.660Z,13.05
2023-04-05T13:35:48.755Z,13.13
2023-04-05T13:38:18.768Z,13.52
2023-04-05T13:40:47.243Z,13.66
2023-04-05T13:43:15.628Z,13.76
2023-04-05T13:45:44.241Z,13.71
2023-04-05T13:48:14.053Z,13.61
2023-04-05T13:50:42.544Z,13.71
2023-04-05T13:53:11.345Z,13.59
2023-04-05T13:55:41.366Z,13.50
2023-04-05T13:58:10.426Z,13.52
2023-04-05T14:00:40.335Z,13.61
2023-04-05T14:03:08.927Z,13.85
2023-04-05T14:05:38.079Z,14.07
2023-04-05T14:08:08.086Z,14.11
2023-04-05T14:10:37.692Z,14.16
2023-04-05T14:13:07.427Z,14.06
2023-04-05T14:15:36.149Z,13.87
2023-04-05T14:18:05.750Z,13.64
2023-04-05T14:20:34.581Z,13.60
2023-04-05T14:23:03.835Z,13.55
2023-04-05T14:25:32.446Z,13.43
2023-04-05T14:28:01.171Z,13.54
2023-04-05T14:30:31.445Z,13.42
2023-04-05T14:33:00.490Z,12.97
2023-04-05T14:35:29.359Z,13.56
2023-04-05T14:37:58.025Z,13.42
2023-04-05T14:40:27.140Z,13.34
2023-04-05T14:42:55.960Z,13.54
2023-04-05T14:45:27.195Z,14.00
2023-04-05T14:47:57.595Z,13.36
2023-04-05T14:50:26.320Z,13.50
2023-04-05T14:52:54.903Z,13.06
2023-04-05T14:55:23.517Z,13.71
2023-04-05T14:57:52.186Z,13.70
2023-04-05T15:00:21.782Z,13.87
2023-04-05T15:02:50.803Z,14.06
2023-04-05T15:05:21.979Z,14.17
2023-04-05T15:07:50.655Z,14.46
2023-04-05T15:10:20.356Z,14.52
2023-04-05T15:12:50.220Z,14.69
2023-04-05T15:15:19.180Z,14.82
2023-04-05T15:17:47.811Z,14.66
2023-04-05T15:20:16.526Z,14.33
2023-04-05T15:22:46.524Z,13.87
2023-04-05T15:25:15.167Z,13.63
2023-04-05T15:27:43.767Z,13.73
2023-04-05T15:30:13.626Z,13.72
2023-04-05T15:32:42.203Z,13.93
2023-04-05T15:35:11.643Z,13.58
2023-04-05T15:37:40.815Z,13.88
2023-04-05T15:40:12.162Z,14.02
2023-04-05T15:42:40.676Z,14.02
2023-04-05T15:45:10.900Z,12.93
2023-04-05T15:47:40.215Z,13.52
2023-04-05T15:50:09.382Z,13.25
2023-04-05T15:52:38.358Z,13.42
2023-04-05T15:55:10.248Z,13.39
2023-04-05T15:57:40.208Z,13.26
2023-04-05T16:00:10.690Z,13.51
2023-04-05T16:02:39.713Z,13.29
2023-04-05T16:05:08.688Z,13.02
2023-04-05T16:07:37.217Z,13.44
2023-04-05T16:10:07.677Z,13.38
2023-04-05T16:12:37.404Z,13.21
2023-04-05T16:15:08.886Z,13.19
2023-04-05T16:17:38.751Z,13.17
2023-04-05T16:20:09.375Z,12.94
2023-04-05T16:22:39.404Z,12.61
2023-04-05T16:25:08.849Z,12.79
2023-04-05T16:27:37.716Z,12.41
2023-04-05T16:30:10.363Z,12.16
2023-04-05T16:32:39.190Z,12.47
2023-04-05T16:35:08.938Z,12.16
2023-04-05T16:37:38.868Z,12.14
2023-04-05T16:40:11.658Z,11.83
2023-04-05T16:42:40.542Z,11.92
2023-04-05T16:45:12.577Z,11.80
2023-04-05T16:47:41.314Z,11.97
2023-04-05T16:50:10.697Z,12.00
2023-04-05T16:52:39.370Z,11.86
2023-04-05T16:55:09.704Z,11.81
2023-04-05T16:57:39.164Z,11.69
2023-04-05T17:00:11.806Z,11.64
2023-04-05T17:02:40.701Z,11.49
2023-04-05T17:05:09.999Z,10.74
2023-04-05T17:07:38.865Z,11.04
2023-04-05T17:10:08.959Z,10.48
2023-04-05T17:12:40.836Z,10.90
2023-04-05T17:15:12.276Z,10.60
2023-04-05T17:17:41.815Z,10.50
2023-04-05T17:20:12.175Z,10.30
2023-04-05T17:22:41.550Z,10.01
2023-04-05T17:25:11.348Z,9.72
2023-04-05T17:27:39.812Z,10.04
2023-04-05T17:30:12.238Z,9.68
2023-04-05T17:32:40.982Z,8.43
2023-04-05T17:35:11.568Z,9.67
2023-04-05T17:37:40.153Z,9.36
2023-04-05T17:40:11.281Z,9.23
2023-04-05T17:42:39.825Z,8.47
2023-04-05T17:45:11.717Z,8.69
2023-04-05T17:47:40.411Z,8.73
2023-04-05T17:50:10.475Z,8.37
2023-04-05T17:52:39.503Z,8.46
2023-04-05T17:55:09.252Z,8.14
2023-04-05T17:57:37.821Z,7.79
2023-04-05T18:00:08.402Z,7.75
2023-04-05T18:02:40.881Z,7.61
2023-04-05T18:05:10.715Z,7.53
2023-04-05T18:07:39.793Z,7.31
2023-04-05T18:10:09.578Z,7.58
2023-04-05T18:12:38.250Z,7.44
2023-04-05T18:15:08.480Z,7.33
2023-04-05T18:17:38.482Z,7.24
2023-04-05T18:20:09.068Z,6.98
2023-04-05T18:22:37.694Z,6.76
2023-04-05T18:25:08.856Z,6.59
2023-04-05T18:27:39.243Z,5.96
2023-04-05T18:30:10.058Z,5.96
2023-04-05T18:32:41.577Z,6.03
2023-04-05T18:35:12.268Z,6.08
2023-04-05T18:37:41.173Z,5.95
2023-04-05T18:40:11.261Z,5.69
2023-04-05T18:42:40.163Z,5.69
2023-04-05T18:45:10.395Z,5.40
2023-04-05T18:47:40.660Z,5.36
2023-04-05T18:50:11.023Z,5.38
2023-04-05T18:52:39.889Z,5.05
2023-04-05T18:55:09.978Z,4.31
2023-04-05T18:57:38.957Z,4.78
2023-04-05T19:00:09.684Z,4.77
2023-04-05T19:02:40.086Z,4.83
2023-04-05T19:05:10.005Z,4.46
2023-04-05T19:07:39.375Z,4.11
2023-04-05T19:10:09.802Z,4.49
2023-04-05T19:12:38.472Z,4.45
2023-04-05T19:15:08.696Z,3.53
2023-04-05T19:17:40.816Z,3.84
2023-04-05T19:20:11.969Z,4.28
2023-04-05T19:22:40.999Z,4.10
2023-04-05T19:25:12.682Z,3.78
2023-04-05T19:27:42.100Z,3.96
2023-04-05T19:30:11.927Z,3.71
2023-04-05T19:32:41.246Z,3.70
2023-04-05T19:35:12.269Z,3.20
2023-04-05T19:37:41.049Z,3.64
2023-04-05T19:40:12.509Z,3.47
2023-04-05T19:42:47.617Z,3.25
2023-04-05T19:45:25.349Z,3.39
2023-04-05T19:47:56.596Z,3.35
2023-04-05T19:50:56.266Z,3.21
2023-04-05T19:53:44.309Z,3.19
2023-04-05T19:56:20.797Z,3.30
2023-04-05T19:58:51.403Z,3.10
2023-04-05T20:01:34.960Z,2.93
2023-04-05T20:04:12.105Z,3.18
2023-04-05T20:06:43.757Z,2.58
2023-04-05T20:09:13.666Z,3.01
2023-04-05T20:11:42.351Z,2.61
2023-04-05T20:14:11.696Z,2.52
2023-04-05T20:16:40.608Z,2.52
2023-04-05T20:19:11.929Z,2.86
2023-04-05T20:21:43.266Z,2.72
2023-04-05T20:24:15.836Z,2.82
2023-04-05T20:26:46.002Z,2.76
2023-04-05T20:29:18.100Z,2.66
2023-04-05T20:31:47.056Z,2.71
2023-04-05T20:34:19.107Z,2.68
2023-04-05T20:36:52.346Z,2.48
2023-04-05T20:39:23.865Z,2.64
2023-04-05T20:41:52.575Z,1.99
2023-04-05T20:44:21.458Z,2.60
2023-04-05T20:46:51.694Z,2.35
2023-04-05T20:49:20.436Z,2.37
2023-04-05T20:51:54.851Z,2.45
2023-04-05T20:54:24.523Z,2.46
2023-04-05T20:56:53.490Z,2.47
2023-04-05T20:59:22.134Z,2.40
2023-04-05T21:01:50.683Z,2.38
2023-04-05T21:04:19.696Z,1.98
2023-04-05T21:06:48.262Z,2.22
2023-04-05T21:09:18.781Z,2.21
2023-04-05T21:11:47.419Z,1.74
2023-04-05T21:14:16.457Z,1.94
2023-04-05T21:16:45.100Z,1.83
2023-04-05T21:19:13.730Z,1.77
2023-04-05T21:21:42.186Z,1.79
2023-04-05T21:24:10.784Z,1.79
2023-04-05T21:26:40.643Z,1.51
2023-04-05T21:29:09.336Z,1.32
2023-04-05T21:31:38.172Z,1.52
2023-04-05T21:34:06.680Z,1.32
2023-04-05T21:36:35.331Z,1.44
2023-04-05T21:39:03.762Z,1.30
2023-04-05T21:41:33.376Z,1.24
2023-04-05T21:44:03.290Z,1.21
2023-04-05T21:46:31.991Z,1.06
2023-04-05T21:49:00.616Z,1.13
2023-04-05T21:51:29.150Z,-0.20
2023-04-05T21:53:57.581Z,1.13
2023-04-05T21:56:26.395Z,0.91
2023-04-05T21:58:54.939Z,1.10
2023-04-05T22:01:24.911Z,1.04
2023-04-05T22:03:53.425Z,0.94
2023-04-05T22:06:21.896Z,0.13
2023-04-05T22:08:53.055Z,-0.19
2023-04-05T22:11:23.779Z,0.26
2023-04-05T22:13:52.524Z,0.75
2023-04-05T22:16:21.383Z,0.61
2023-04-05T22:18:51.522Z,0.86
2023-04-05T22:21:20.159Z,-0.24
2023-04-05T22:23:48.855Z,0.91
2023-04-05T22:26:17.547Z,0.73
2023-04-05T22:28:46.168Z,0.37
2023-04-05T22:31:16.534Z,0.77
2023-04-05T22:33:45.128Z,0.52
2023-04-05T22:36:16.415Z,0.18
2023-04-05T22:38:44.975Z,0.62
2023-04-05T22:41:15.210Z,0.79
2023-04-05T22:43:43.737Z,0.42
2023-04-05T22:46:12.376Z,0.77
2023-04-05T22:48:41.954Z,0.12
2023-04-05T22:51:10.745Z,0.75
2023-04-05T22:53:43.150Z,0.39
2023-04-05T22:56:11.873Z,0.48
2023-04-05T22:58:40.469Z,0.66
2023-04-05T23:01:10.686Z,0.25
2023-04-05T23:03:39.286Z,0.67
2023-04-05T23:06:08.301Z,0.54
2023-04-05T23:08:36.904Z,0.44
2023-04-05T23:11:07.639Z,0.63
2023-04-05T23:13:36.441Z,0.61
2023-04-05T23:16:06.088Z,0.60
2023-04-05T23:18:34.761Z,0.17
2023-04-05T23:21:03.238Z,0.38
2023-04-05T23:23:31.667Z,0.30
2023-04-05T23:26:00.470Z,-0.21
2023-04-05T23:28:30.564Z,-0.15
2023-04-05T23:30:59.268Z,0.12
2023-04-05T23:33:28.181Z,-0.88
2023-04-05T23:35:56.816Z,-0.04
2023-04-05T23:38:25.682Z,0.18
2023-04-05T23:40:54.160Z,0.18
2023-04-05T23:43:22.939Z,0.28
2023-04-05T23:45:52.773Z,-0.25
2023-04-05T23:48:21.578Z,0.20
2023-04-05T23:50:50.121Z,0.30
2023-04-05T23:53:18.581Z,-1.19
2023-04-05T23:55:47.216Z,-0.83
2023-04-05T23:58:15.702Z,0.25
